Time;durP1;ratioP1;P1;durP2;ratioP2;P2;SDS_P1;SDS_P2;PMS_P1;PMS_P2;Temp;Humidity;BMP_temperature;BMP_pressure;BME280_temperature;BME280_humidity;BME280_pressure;Samples;Min_cycle;Max_cycle;Signal;HPM_P1;HPM_P2
2022/07/10 00:00:37;;;;;;;3.85;1.48;;;17.00;99.90;;;;;;5054184;28;20029;-75
2022/07/10 00:03:04;;;;;;;6.75;2.00;;;17.00;99.90;;;;;;5054287;28;20029;-75
2022/07/10 00:05:30;;;;;;;9.45;2.15;;;17.10;99.90;;;;;;5054082;28;20029;-75
2022/07/10 00:07:56;;;;;;;10.32;1.63;;;17.20;99.90;;;;;;5053930;28;20095;-75
2022/07/10 00:10:22;;;;;;;9.98;1.95;;;17.30;99.90;;;;;;5053007;28;20033;-75
2022/07/10 00:12:50;;;;;;;6.93;1.60;;;17.30;99.90;;;;;;5053974;28;20099;-75
2022/07/10 00:15:17;;;;;;;5.97;1.92;;;17.00;99.90;;;;;;5036199;28;20044;-75
2022/07/10 00:17:43;;;;;;;7.68;1.77;;;16.90;99.90;;;;;;5052665;28;20112;-75
2022/07/10 00:20:10;;;;;;;8.75;2.08;;;17.00;99.90;;;;;;5053616;28;20021;-75
2022/07/10 00:22:37;;;;;;;6.13;1.85;;;17.00;99.90;;;;;;5053912;28;20028;-75
2022/07/10 00:25:08;;;;;;;14.75;1.95;;;17.10;99.90;;;;;;5053932;28;20472;-75
2022/07/10 00:27:34;;;;;;;6.97;2.00;;;17.20;99.90;;;;;;5053767;28;20067;-75
2022/07/10 00:30:01;;;;;;;9.52;1.88;;;17.30;99.90;;;;;;5053697;28;20029;-75
2022/07/10 00:32:26;;;;;;;5.60;2.10;;;17.30;99.90;;;;;;5053529;28;20488;-75
2022/07/10 00:34:52;;;;;;;10.93;1.83;;;17.40;99.90;;;;;;5053392;28;20040;-75
2022/07/10 00:37:20;;;;;;;10.15;2.15;;;17.30;99.90;;;;;;5053629;28;20033;-75
2022/07/10 00:39:46;;;;;;;4.10;1.70;;;17.30;99.90;;;;;;5053440;28;20104;-75
2022/07/10 00:42:14;;;;;;;6.35;1.60;;;17.30;99.90;;;;;;5053717;28;20037;-75
2022/07/10 00:44:41;;;;;;;5.18;1.67;;;17.20;99.90;;;;;;5052135;28;20017;-75
2022/07/10 00:47:08;;;;;;;5.88;1.83;;;17.40;99.90;;;;;;5053441;28;20029;-75
2022/07/10 00:49:35;;;;;;;10.32;1.90;;;17.30;99.90;;;;;;5051781;28;20027;-75
2022/07/10 00:52:03;;;;;;;10.07;1.80;;;17.40;99.90;;;;;;5053196;28;20037;-75
2022/07/10 00:54:30;;;;;;;6.07;1.85;;;17.30;99.90;;;;;;5051965;28;20055;-75
2022/07/10 00:56:57;;;;;;;11.77;2.40;;;17.10;99.90;;;;;;5053170;28;20032;-75
2022/07/10 00:59:23;;;;;;;9.85;2.60;;;17.10;99.90;;;;;;5053065;28;20029;-75
2022/07/10 01:01:52;;;;;;;5.53;1.73;;;17.00;99.90;;;;;;5053404;28;20068;-75
2022/07/10 01:04:18;;;;;;;7.82;1.70;;;16.90;99.90;;;;;;5052558;28;20021;-75
2022/07/10 01:06:44;;;;;;;5.90;1.60;;;17.10;99.90;;;;;;5053177;28;20017;-75
2022/07/10 01:09:10;;;;;;;4.18;1.30;;;17.20;99.90;;;;;;5052754;28;20546;-75
2022/07/10 01:11:37;;;;;;;7.75;1.50;;;17.10;99.90;;;;;;5051626;28;20060;-75
2022/07/10 01:14:03;;;;;;;5.70;1.52;;;17.20;99.90;;;;;;5051974;28;20063;-75
2022/07/10 01:16:32;;;;;;;4.13;1.30;;;17.30;99.90;;;;;;5052653;28;20116;-75
2022/07/10 01:18:58;;;;;;;9.07;2.08;;;16.90;99.90;;;;;;5051495;28;20021;-75
2022/07/10 01:21:29;;;;;;;8.50;2.38;;;17.00;99.90;;;;;;5052573;28;20028;-75
2022/07/10 01:23:55;;;;;;;6.70;1.70;;;17.10;99.90;;;;;;5053007;28;20058;-75
2022/07/10 01:26:23;;;;;;;9.02;1.50;;;17.10;99.90;;;;;;5051211;28;20104;-76
2022/07/10 01:28:53;;;;;;;9.52;1.80;;;17.20;99.90;;;;;;5052930;28;20416;-75
2022/07/10 01:31:23;;;;;;;5.50;1.85;;;17.00;99.90;;;;;;5052363;28;20484;-75
2022/07/10 01:33:49;;;;;;;8.50;2.30;;;17.00;99.90;;;;;;5052474;28;20056;-75
2022/07/10 01:36:16;;;;;;;7.63;1.90;;;17.00;99.90;;;;;;5052619;28;20544;-75
2022/07/10 01:38:42;;;;;;;7.13;1.73;;;16.90;99.90;;;;;;5052936;28;20028;-75
2022/07/10 01:41:08;;;;;;;9.35;2.10;;;16.70;99.90;;;;;;5052782;28;20025;-75
2022/07/10 01:43:37;;;;;;;8.93;1.48;;;16.50;99.90;;;;;;5051343;28;20028;-75
2022/07/10 01:46:04;;;;;;;7.53;1.85;;;16.20;99.90;;;;;;5051093;28;20040;-75
2022/07/10 01:48:30;;;;;;;5.10;2.00;;;16.30;99.90;;;;;;5054019;28;20021;-75
2022/07/10 01:50:57;;;;;;;4.95;1.73;;;16.20;99.90;;;;;;5055491;28;20098;-75
2022/07/10 01:53:23;;;;;;;7.03;1.67;;;16.30;99.90;;;;;;5069661;28;20036;-75
2022/07/10 01:55:49;;;;;;;7.38;1.63;;;15.70;99.90;;;;;;5063626;28;20021;-75
2022/07/10 01:58:14;;;;;;;7.40;1.90;;;15.90;99.90;;;;;;5074500;28;20070;-75
2022/07/10 02:00:40;;;;;;;7.80;1.90;;;15.80;99.90;;;;;;5076653;28;20020;-75
2022/07/10 02:05:51;;;;;;;6.78;1.60;;;15.80;99.90;;;;;;5066464;28;20058;-75
2022/07/10 02:08:16;;;;;;;10.32;1.98;;;15.40;99.90;;;;;;5076352;28;20476;-75
2022/07/10 02:10:42;;;;;;;5.88;2.25;;;15.40;99.90;;;;;;5075012;28;20064;-75
2022/07/10 02:13:09;;;;;;;8.73;1.95;;;15.50;99.90;;;;;;5075181;28;20032;-75
2022/07/10 02:15:35;;;;;;;7.13;1.75;;;15.60;99.90;;;;;;5074818;28;20028;-75
2022/07/10 02:18:01;;;;;;;6.78;2.20;;;15.70;99.90;;;;;;5075150;28;20024;-75
2022/07/10 02:20:26;;;;;;;4.13;1.95;;;15.60;99.90;;;;;;5072335;28;20056;-75
2022/07/10 02:22:52;;;;;;;7.93;1.98;;;15.90;99.90;;;;;;5064452;28;20392;-75
2022/07/10 02:25:18;;;;;;;8.18;1.85;;;15.50;99.90;;;;;;5076230;28;20028;-75
2022/07/10 02:27:43;;;;;;;10.77;2.30;;;15.70;99.90;;;;;;5074843;28;20035;-75
2022/07/10 02:30:10;;;;;;;11.13;2.45;;;15.70;99.90;;;;;;5074699;28;20024;-75
2022/07/10 02:32:35;;;;;;;6.93;1.63;;;15.60;99.90;;;;;;5074457;28;20036;-75
2022/07/10 02:35:01;;;;;;;5.25;2.08;;;15.80;99.90;;;;;;5076026;28;20029;-75
2022/07/10 02:37:27;;;;;;;7.30;2.00;;;15.40;99.90;;;;;;5075517;28;20028;-75
2022/07/10 02:39:52;;;;;;;8.15;2.58;;;15.30;99.90;;;;;;5075798;28;20060;-75
2022/07/10 02:42:18;;;;;;;10.55;2.42;;;15.30;99.90;;;;;;5075705;28;20024;-75
2022/07/10 02:44:44;;;;;;;7.80;2.13;;;15.60;99.90;;;;;;5075701;28;20035;-75
2022/07/10 02:47:09;;;;;;;7.35;2.47;;;15.40;99.90;;;;;;5074518;28;20021;-75
2022/07/10 02:49:35;;;;;;;6.60;2.58;;;15.30;99.90;;;;;;5075420;28;20497;-75
2022/07/10 02:52:01;;;;;;;8.25;3.03;;;15.40;99.90;;;;;;5075551;28;20139;-74
2022/07/10 02:54:27;;;;;;;7.00;2.47;;;15.20;99.90;;;;;;5072878;28;20016;-75
2022/07/10 02:56:52;;;;;;;8.23;2.45;;;15.50;99.90;;;;;;5064178;28;20045;-74
2022/07/10 02:59:18;;;;;;;8.25;2.45;;;15.60;99.90;;;;;;5075200;28;20020;-75
2022/07/10 03:01:44;;;;;;;10.27;2.75;;;15.70;99.90;;;;;;5075240;28;20032;-75
2022/07/10 03:04:09;;;;;;;8.43;2.60;;;15.50;99.90;;;;;;5075304;28;20112;-75
2022/07/10 03:06:35;;;;;;;6.95;2.78;;;15.00;99.90;;;;;;5075079;28;20051;-75
2022/07/10 03:09:02;;;;;;;8.02;2.83;;;14.80;99.90;;;;;;5075073;28;20170;-75
2022/07/10 03:11:27;;;;;;;7.10;2.40;;;14.60;99.90;;;;;;5075224;28;20024;-75
2022/07/10 03:13:53;;;;;;;8.30;2.58;;;14.50;99.90;;;;;;5074907;28;20163;-75
2022/07/10 03:16:19;;;;;;;13.65;2.70;;;14.40;99.90;;;;;;5075136;28;20021;-75
2022/07/10 03:18:45;;;;;;;8.88;2.60;;;14.50;99.90;;;;;;5074950;28;20476;-75
2022/07/10 03:21:11;;;;;;;9.02;2.53;;;14.80;99.90;;;;;;5075328;28;20025;-74
2022/07/10 03:23:39;;;;;;;8.00;2.60;;;15.00;99.90;;;;;;5074954;28;20369;-74
2022/07/10 03:26:05;;;;;;;6.70;2.55;;;15.20;99.90;;;;;;5075065;28;20032;-75
2022/07/10 03:28:31;;;;;;;7.65;2.50;;;15.30;99.90;;;;;;5074632;28;20023;-75
2022/07/10 03:30:56;;;;;;;8.45;2.90;;;15.50;99.90;;;;;;5073521;28;20408;-75
2022/07/10 03:33:22;;;;;;;8.55;2.65;;;15.50;99.90;;;;;;5074827;28;20036;-75
2022/07/10 03:35:48;;;;;;;6.88;2.72;;;15.60;99.90;;;;;;5074804;28;20428;-75
2022/07/10 03:38:14;;;;;;;7.32;2.65;;;15.30;99.90;;;;;;5074561;28;20028;-75
2022/07/10 03:40:40;;;;;;;6.72;2.80;;;14.70;99.90;;;;;;5072580;28;20107;-75
2022/07/10 03:43:05;;;;;;;7.00;2.58;;;14.60;99.90;;;;;;5074105;28;20036;-75
2022/07/10 03:45:31;;;;;;;10.43;2.78;;;14.40;99.90;;;;;;5074487;28;20021;-74
2022/07/10 03:47:57;;;;;;;5.38;2.65;;;14.20;99.90;;;;;;5073226;28;20051;-74
2022/07/10 03:50:23;;;;;;;7.90;2.75;;;14.30;99.90;;;;;;5074538;28;20033;-75
2022/07/10 03:52:49;;;;;;;8.48;2.70;;;14.40;99.90;;;;;;5072951;28;20036;-75
2022/07/10 03:55:15;;;;;;;9.13;2.90;;;14.30;99.90;;;;;;5065103;28;20028;-75
2022/07/10 03:57:57;;;;;;;9.00;3.03;;;14.40;99.90;;;;;;5069327;28;20017;-75
2022/07/10 04:00:26;;;;;;;;;;;14.60;99.90;;;;;;5074946;28;20036;-74
2022/07/10 04:03:03;;;;;;;7.50;2.97;;;14.30;99.90;;;;;;5074010;28;19978;-77
2022/07/10 04:05:29;;;;;;;6.75;2.67;;;14.10;99.90;;;;;;5074374;28;20028;-77
2022/07/10 04:07:56;;;;;;;10.27;2.75;;;14.00;99.90;;;;;;5073961;28;20025;-75
2022/07/10 04:10:23;;;;;;;9.88;3.25;;;14.20;99.90;;;;;;5056407;28;20400;-74
2022/07/10 04:12:49;;;;;;;13.02;3.75;;;14.20;99.90;;;;;;5072581;28;20499;-74
2022/07/10 04:15:15;;;;;;;9.45;2.85;;;14.10;99.90;;;;;;5072086;28;20023;-74
2022/07/10 04:17:41;;;;;;;10.13;3.63;;;14.20;99.90;;;;;;5074034;28;20042;-74
2022/07/10 04:20:08;;;;;;;5.57;2.83;;;14.20;99.90;;;;;;5073965;28;20349;-74
2022/07/10 04:22:33;;;;;;;13.00;3.35;;;14.40;99.90;;;;;;5073978;28;20028;-74
2022/07/10 04:25:00;;;;;;;10.18;3.45;;;14.60;99.90;;;;;;5072333;28;20546;-74
2022/07/10 04:27:26;;;;;;;9.43;3.28;;;14.90;99.90;;;;;;5072481;28;20460;-74
2022/07/10 04:29:52;;;;;;;11.73;3.13;;;14.90;99.90;;;;;;5073695;28;20452;-74
2022/07/10 04:32:17;;;;;;;10.32;3.35;;;14.70;99.90;;;;;;5073769;28;20062;-74
2022/07/10 04:34:43;;;;;;;11.77;2.92;;;14.70;99.90;;;;;;5073406;28;20032;-74
2022/07/10 04:37:09;;;;;;;9.30;3.05;;;14.90;99.90;;;;;;5072384;28;20037;-74
2022/07/10 04:39:39;;;;;;;12.02;3.05;;;14.90;99.90;;;;;;5072324;28;20032;-74
2022/07/10 04:42:06;;;;;;;11.07;2.95;;;14.90;99.90;;;;;;5073314;28;20512;-74
2022/07/10 04:44:32;;;;;;;12.40;3.05;;;14.80;99.90;;;;;;5073098;28;20021;-74
2022/07/10 04:46:58;;;;;;;7.80;2.88;;;14.80;99.90;;;;;;5071988;28;20031;-74
2022/07/10 04:49:27;;;;;;;8.30;3.00;;;14.70;99.90;;;;;;5073491;28;20372;-74
2022/07/10 04:51:52;;;;;;;8.27;3.03;;;14.60;99.90;;;;;;5073235;28;20036;-74
2022/07/10 04:54:18;;;;;;;7.07;2.65;;;14.60;99.90;;;;;;5071667;28;20066;-74
2022/07/10 04:56:44;;;;;;;8.32;2.90;;;14.60;99.90;;;;;;5060335;28;20028;-74
2022/07/10 04:59:10;;;;;;;7.20;3.00;;;14.70;99.90;;;;;;5073301;28;20082;-74
2022/07/10 05:01:37;;;;;;;5.85;2.67;;;14.80;99.90;;;;;;5072007;28;20111;-74
2022/07/10 05:04:03;;;;;;;8.95;3.38;;;14.80;99.90;;;;;;5073307;28;20059;-74
2022/07/10 05:06:29;;;;;;;5.95;2.80;;;15.20;99.90;;;;;;5071786;28;20021;-75
2022/07/10 05:08:55;;;;;;;8.32;3.20;;;15.20;99.90;;;;;;5071665;28;20447;-74
2022/07/10 05:11:22;;;;;;;7.40;3.05;;;15.30;99.90;;;;;;5071505;28;20029;-74
2022/07/10 05:13:48;;;;;;;5.65;2.67;;;15.00;99.90;;;;;;5072956;28;20024;-74
2022/07/10 05:16:15;;;;;;;10.55;3.03;;;15.30;99.90;;;;;;5072993;28;20028;-74
2022/07/10 05:18:41;;;;;;;5.70;2.60;;;15.10;99.90;;;;;;5072887;28;20028;-74
2022/07/10 05:21:07;;;;;;;8.07;3.00;;;15.00;99.90;;;;;;5072948;28;20036;-74
2022/07/10 05:23:33;;;;;;;9.82;3.15;;;14.80;99.90;;;;;;5072762;28;20023;-74
2022/07/10 05:25:58;;;;;;;7.18;2.70;;;14.80;99.90;;;;;;5070407;28;20039;-74
2022/07/10 05:28:24;;;;;;;7.90;3.45;;;14.90;99.90;;;;;;5072789;28;20024;-74
2022/07/10 05:30:50;;;;;;;8.93;2.78;;;14.90;99.90;;;;;;5071558;28;20452;-74
2022/07/10 05:33:16;;;;;;;6.82;3.25;;;15.10;99.90;;;;;;5072622;28;20032;-75
2022/07/10 05:35:42;;;;;;;9.18;3.38;;;15.10;99.90;;;;;;5071401;28;20125;-74
2022/07/10 05:38:07;;;;;;;6.50;3.10;;;15.10;99.90;;;;;;5073060;28;20075;-74
2022/07/10 05:40:33;;;;;;;6.95;2.88;;;15.10;99.90;;;;;;5072364;28;20130;-74
2022/07/10 05:42:59;;;;;;;6.80;2.97;;;15.50;99.90;;;;;;5071535;28;20024;-75
2022/07/10 05:45:25;;;;;;;11.35;3.75;;;15.70;99.90;;;;;;5072682;28;20460;-74
2022/07/10 05:47:51;;;;;;;8.90;3.58;;;16.10;99.90;;;;;;5071441;28;20366;-74
2022/07/10 05:50:17;;;;;;;7.07;3.28;;;16.50;99.90;;;;;;5072624;28;20127;-74
2022/07/10 05:52:43;;;;;;;9.85;3.08;;;16.20;99.90;;;;;;5072609;28;20040;-74
2022/07/10 05:55:08;;;;;;;6.57;2.85;;;16.10;99.90;;;;;;5063911;28;20028;-74
2022/07/10 05:57:35;;;;;;;8.55;2.92;;;16.40;99.90;;;;;;5066767;28;20056;-74
2022/07/10 06:00:03;;;;;;;10.10;3.17;;;16.30;99.90;;;;;;5072608;28;20029;-74
2022/07/10 06:02:37;;;;;;;11.95;2.88;;;16.50;99.90;;;;;;5072567;28;20027;-74
2022/07/10 06:05:03;;;;;;;7.95;2.92;;;16.30;99.90;;;;;;5071121;28;20033;-75
2022/07/10 06:07:29;;;;;;;9.20;3.08;;;16.30;99.90;;;;;;5072086;28;20124;-75
2022/07/10 06:09:55;;;;;;;10.43;2.35;;;16.30;99.90;;;;;;5072169;28;20111;-75
2022/07/10 06:12:21;;;;;;;5.45;2.50;;;16.80;99.90;;;;;;5070950;28;20484;-75
2022/07/10 06:14:47;;;;;;;10.82;3.13;;;16.60;99.90;;;;;;5072154;28;20024;-75
2022/07/10 06:17:13;;;;;;;7.03;2.65;;;16.60;99.90;;;;;;5072469;28;20029;-75
2022/07/10 06:19:39;;;;;;;6.65;2.28;;;16.70;99.90;;;;;;5071060;28;20052;-74
2022/07/10 06:24:49;;;;;;;9.35;2.20;;;16.90;99.90;;;;;;5072045;28;20028;-77
2022/07/10 06:27:15;;;;;;;9.77;2.65;;;17.10;99.90;;;;;;5054639;28;20056;-74
2022/07/10 06:29:41;;;;;;;7.53;2.30;;;17.30;99.90;;;;;;5071349;28;20439;-74
2022/07/10 06:32:07;;;;;;;9.68;2.53;;;17.30;99.90;;;;;;5067264;28;20029;-75
2022/07/10 06:34:32;;;;;;;9.25;2.88;;;17.30;99.90;;;;;;5062967;28;20158;-74
2022/07/10 06:36:58;;;;;;;5.93;2.15;;;17.30;99.90;;;;;;5071207;28;20115;-75
2022/07/10 06:39:24;;;;;;;6.18;2.08;;;17.60;99.90;;;;;;5075903;28;20017;-74
2022/07/10 06:41:50;;;;;;;6.45;2.42;;;17.40;99.90;;;;;;5074373;28;20393;-75
2022/07/10 06:44:16;;;;;;;7.63;2.20;;;17.40;99.90;;;;;;5076146;28;20154;-77
2022/07/10 06:46:42;;;;;;;7.85;2.22;;;17.50;99.90;;;;;;5075570;28;20111;-75
2022/07/10 06:49:08;;;;;;;15.35;3.42;;;17.60;99.90;;;;;;5075679;28;20016;-75
2022/07/10 06:51:34;;;;;;;10.00;1.73;;;17.60;99.90;;;;;;5075289;28;20052;-74
2022/07/10 06:54:00;;;;;;;4.32;1.23;;;17.80;99.90;;;;;;5074200;28;20063;-75
2022/07/10 06:56:26;;;;;;;6.40;1.70;;;18.10;99.90;;;;;;5061241;28;20029;-75
2022/07/10 06:58:52;;;;;;;7.88;1.77;;;18.00;99.90;;;;;;5075479;28;20032;-74
2022/07/10 07:01:18;;;;;;;8.23;1.80;;;17.90;99.90;;;;;;5075300;28;20031;-74
2022/07/10 07:03:44;;;;;;;7.03;1.92;;;18.10;99.90;;;;;;5075549;28;20028;-74
2022/07/10 07:06:10;;;;;;;9.55;1.75;;;18.10;99.90;;;;;;5075187;28;20029;-74
2022/07/10 07:08:36;;;;;;;7.45;1.73;;;18.10;99.90;;;;;;5073823;28;20024;-75
2022/07/10 07:11:02;;;;;;;4.75;1.20;;;18.60;99.90;;;;;;5075038;28;20111;-74
2022/07/10 07:13:28;;;;;;;6.13;1.77;;;18.40;99.90;;;;;;5073958;28;20038;-74
2022/07/10 07:16:00;;;;;;;4.70;1.42;;;18.30;99.90;;;;;;5075285;28;20639;-74
2022/07/10 07:18:35;;;;;;;9.48;1.70;;;18.00;99.90;;;;;;5075067;28;20465;-74
2022/07/10 07:23:45;;;;;;;8.13;1.77;;;17.80;99.90;;;;;;5074876;28;20040;-74
2022/07/10 07:26:11;;;;;;;8.82;1.70;;;18.00;99.90;;;;;;5075134;28;20017;-74
2022/07/10 07:28:37;;;;;;;12.38;2.38;;;18.30;99.90;;;;;;5073763;28;20031;-74
2022/07/10 07:31:03;;;;;;;5.20;1.77;;;18.70;99.90;;;;;;5074750;28;20021;-74
2022/07/10 07:33:29;;;;;;;6.03;2.13;;;18.50;99.90;;;;;;5074786;28;20488;-74
2022/07/10 07:35:54;;;;;;;5.60;2.90;;;18.60;99.90;;;;;;5074609;28;20039;-74
2022/07/10 07:38:20;;;;;;;12.27;2.58;;;18.80;99.90;;;;;;5075110;28;20078;-74
2022/07/10 07:40:46;;;;;;;7.63;2.65;;;18.90;99.90;;;;;;5046729;28;20029;-74
2022/07/10 07:43:12;;;;;;;7.45;2.22;;;19.20;99.90;;;;;;5073296;28;20077;-74
2022/07/10 07:45:38;;;;;;;8.05;1.83;;;18.80;99.90;;;;;;5073319;28;20017;-74
2022/07/10 07:48:03;;;;;;;5.30;1.77;;;18.90;99.90;;;;;;5056177;28;20510;-74
2022/07/10 07:50:34;;;;;;;10.25;2.00;;;18.80;99.90;;;;;;5074201;28;20024;-74
2022/07/10 07:53:01;;;;;;;9.43;2.37;;;19.30;99.90;;;;;;5074347;28;20048;-74
2022/07/10 07:55:28;;;;;;;6.50;2.05;;;19.70;99.90;;;;;;5063377;28;20029;-74
2022/07/10 07:57:55;;;;;;;5.80;1.73;;;20.00;99.90;;;;;;5071414;28;20484;-74
2022/07/10 08:00:23;;;;;;;6.38;1.77;;;19.60;99.90;;;;;;5073236;28;20027;-74
2022/07/10 08:02:50;;;;;;;4.97;2.10;;;19.60;99.90;;;;;;5073193;28;20055;-74
2022/07/10 08:05:16;;;;;;;5.88;2.00;;;19.60;99.90;;;;;;5073919;28;20050;-74
2022/07/10 08:07:46;;;;;;;6.38;2.17;;;19.80;99.90;;;;;;5074090;28;20515;-74
2022/07/10 08:10:13;;;;;;;6.00;1.55;;;20.10;99.90;;;;;;5074145;28;20063;-74
2022/07/10 08:12:41;;;;;;;9.13;1.75;;;19.70;99.90;;;;;;5074278;28;20051;-74
2022/07/10 08:15:10;;;;;;;4.53;1.40;;;19.10;99.90;;;;;;5073893;28;20032;-74
2022/07/10 08:17:37;;;;;;;6.78;1.90;;;19.30;99.90;;;;;;5074020;28;20070;-77
2022/07/10 08:20:05;;;;;;;6.63;2.15;;;19.80;99.90;;;;;;5073173;28;20015;-77
2022/07/10 08:22:31;;;;;;;7.72;2.92;;;19.90;99.90;;;;;;5072742;28;20400;-74
2022/07/10 08:24:56;;;;;;;8.75;2.40;;;19.80;99.90;;;;;;5072395;28;20028;-74
2022/07/10 08:27:23;;;;;;;5.75;2.05;;;20.00;99.90;;;;;;5073949;28;20035;-74
2022/07/10 08:29:48;;;;;;;7.68;2.83;;;20.20;99.90;;;;;;5073721;28;20020;-74
2022/07/10 08:32:14;;;;;;;5.18;2.40;;;20.40;99.90;;;;;;5072028;28;20392;-74
2022/07/10 08:34:40;;;;;;;6.55;1.52;;;20.90;99.90;;;;;;5073339;28;20021;-75
2022/07/10 08:37:06;;;;;;;5.22;1.55;;;21.10;99.90;;;;;;5072331;28;20032;-74
2022/07/10 08:39:32;;;;;;;10.60;2.17;;;21.00;99.90;;;;;;5073609;28;20039;-75
2022/07/10 08:41:59;;;;;;;4.97;2.15;;;20.90;99.90;;;;;;5073265;28;20062;-74
2022/07/10 08:44:25;;;;;;;6.82;2.08;;;20.70;99.90;;;;;;5073305;28;20020;-74
2022/07/10 08:46:51;;;;;;;5.30;1.90;;;21.00;99.90;;;;;;5073521;28;20487;-74
2022/07/10 08:49:17;;;;;;;6.38;1.73;;;21.10;99.90;;;;;;5072846;28;20066;-74
2022/07/10 08:52:13;;;;;;;5.70;1.70;;;21.50;99.90;;;;;;5073104;28;20032;-74
2022/07/10 08:54:39;;;;;;;9.27;1.58;;;21.90;99.90;;;;;;5067751;28;20037;-74
2022/07/10 08:57:05;;;;;;;8.07;1.60;;;21.60;99.90;;;;;;5062246;28;20019;-74
2022/07/10 08:59:31;;;;;;;5.53;1.90;;;21.50;99.90;;;;;;5072957;28;20109;-74
2022/07/10 09:01:57;;;;;;;6.18;1.92;;;21.40;99.90;;;;;;5072871;28;20434;-74
2022/07/10 09:04:26;;;;;;;4.30;1.77;;;21.80;99.90;;;;;;5073047;28;20050;-74
2022/07/10 09:06:53;;;;;;;7.57;1.67;;;22.10;99.90;;;;;;5073149;28;20103;-74
2022/07/10 09:09:20;;;;;;;4.40;1.88;;;22.70;99.90;;;;;;5072879;28;20520;-74
2022/07/10 09:11:46;;;;;;;4.65;1.38;;;22.40;99.90;;;;;;5072497;28;20029;-74
2022/07/10 09:14:14;;;;;;;5.00;2.00;;;22.10;99.90;;;;;;5073041;28;20032;-77
2022/07/10 09:16:45;;;;;;;6.53;1.88;;;21.90;99.90;;;;;;5072617;28;20025;-74
2022/07/10 09:19:21;;;;;;;6.55;1.70;;;22.20;99.90;;;;;;5072961;28;20036;-75
2022/07/10 09:21:52;;;;;;;4.47;1.40;;;22.50;99.90;;;;;;5072601;28;20029;-74
2022/07/10 09:24:19;;;;;;;10.63;1.80;;;22.30;99.90;;;;;;5072924;28;20492;-74
2022/07/10 09:27:03;;;;;;;5.45;1.40;;;23.10;99.90;;;;;;5054569;28;20067;-74
2022/07/10 09:29:43;;;;;;;6.03;1.88;;;23.10;99.90;;;;;;5072907;28;20111;-74
2022/07/10 09:32:09;;;;;;;3.28;1.30;;;23.00;99.20;;;;;;5067081;28;20055;-75
2022/07/10 09:34:42;;;;;;;4.65;1.38;;;22.50;99.90;;;;;;5063661;28;20484;-75
2022/07/10 09:37:19;;;;;;;9.02;1.50;;;22.30;99.90;;;;;;5072489;28;20103;-75
2022/07/10 09:39:59;;;;;;;9.85;2.20;;;22.20;99.90;;;;;;5072813;28;20576;-75
2022/07/10 09:42:43;;;;;;;5.90;1.63;;;21.50;99.90;;;;;;5072548;28;20020;-76
2022/07/10 09:45:16;;;;;;;4.20;1.42;;;22.20;99.90;;;;;;5072580;28;20028;-75
2022/07/10 09:47:56;;;;;;;3.88;1.60;;;22.60;99.90;;;;;;5046539;28;20021;-75
2022/07/10 09:50:30;;;;;;;11.82;2.22;;;22.90;98.80;;;;;;5072109;28;20037;-75
2022/07/10 09:52:59;;;;;;;10.32;2.70;;;22.10;99.90;;;;;;5072569;28;20086;-75
2022/07/10 09:55:26;;;;;;;2.17;1.42;;;22.20;99.90;;;;;;5062014;28;20461;-75
2022/07/10 09:57:58;;;;;;;6.65;1.60;;;22.80;99.90;;;;;;5051112;28;20051;-76
2022/07/10 10:00:27;;;;;;;5.50;1.52;;;23.00;99.70;;;;;;5071100;28;20476;-75
2022/07/10 10:03:01;;;;;;;5.05;1.58;;;23.00;99.70;;;;;;5072258;28;20032;-76
2022/07/10 10:05:52;;;;;;;3.13;1.55;;;23.50;99.90;;;;;;5071317;28;20032;-75
2022/07/10 10:08:49;;;;;;;5.28;1.52;;;22.50;99.90;;;;;;5071726;28;20040;-75
2022/07/10 10:11:18;;;;;;;5.05;1.40;;;22.00;99.90;;;;;;5072077;28;20039;-75
2022/07/10 10:13:44;;;;;;;8.20;1.45;;;22.30;99.90;;;;;;5076326;28;20085;-75
2022/07/10 10:16:12;;;;;;;4.05;1.40;;;23.10;99.90;;;;;;5074707;28;20029;-75
2022/07/10 10:20:36;;;;;;;3.40;1.20;;;22.50;99.90;;;;;;5076248;28;20021;-75
2022/07/10 10:21:28;;;;;;;3.45;1.15;;;22.80;99.90;;;;;;5074574;28;20043;-75
2022/07/10 10:23:55;;;;;;;5.60;1.40;;;22.20;99.90;;;;;;5076275;28;20025;-75
2022/07/10 10:26:23;;;;;;;2.88;1.25;;;21.70;99.90;;;;;;5075807;28;20032;-75
2022/07/10 10:28:52;;;;;;;3.80;1.30;;;21.60;99.90;;;;;;5075772;28;20029;-75
2022/07/10 10:31:19;;;;;;;5.35;1.33;;;22.10;99.90;;;;;;5075975;28;20115;-75
2022/07/10 10:33:46;;;;;;;7.70;1.63;;;22.30;99.90;;;;;;5074795;28;20488;-75
2022/07/10 10:36:33;;;;;;;4.18;1.20;;;21.50;99.90;;;;;;5074802;28;20041;-75
2022/07/10 10:39:10;;;;;;;6.80;2.22;;;22.00;99.90;;;;;;5064658;28;20036;-75
2022/07/10 10:42:08;;;;;;;4.85;1.27;;;22.70;99.90;;;;;;5075809;28;20089;-75
2022/07/10 10:44:33;;;;;;;5.70;1.13;;;23.00;99.90;;;;;;5045864;28;20127;-75
2022/07/10 10:47:08;;;;;;;4.68;1.10;;;22.90;98.90;;;;;;5075498;28;20095;-75
2022/07/10 10:49:57;;;;;;;5.50;1.20;;;22.10;99.10;;;;;;5075689;28;20295;-75
2022/07/10 10:52:24;;;;;;;4.00;1.30;;;22.60;99.90;;;;;;5075216;28;20445;-76
2022/07/10 10:54:56;;;;;;;5.50;1.20;;;23.60;99.60;;;;;;5068536;28;20023;-75
2022/07/10 10:57:22;;;;;;;5.60;1.10;;;24.20;98.10;;;;;;5068196;28;20036;-75
2022/07/10 10:59:53;;;;;;;4.57;1.50;;;24.80;97.20;;;;;;5075138;28;20475;-76
2022/07/10 11:02:30;;;;;;;10.68;1.92;;;24.40;97.20;;;;;;5075310;28;20025;-76
2022/07/10 11:05:19;;;;;;;5.07;1.27;;;24.20;97.50;;;;;;5075351;28;20035;-75
2022/07/10 11:08:02;;;;;;;4.57;1.20;;;23.80;97.40;;;;;;5074859;28;20041;-76
2022/07/10 11:10:31;;;;;;;6.25;1.20;;;23.00;97.90;;;;;;5075302;28;20028;-75
2022/07/10 11:13:02;;;;;;;3.75;1.40;;;23.70;98.30;;;;;;5073407;28;20028;-76
2022/07/10 11:15:36;;;;;;;3.72;1.10;;;23.00;98.40;;;;;;5075187;28;20029;-75
2022/07/10 11:18:07;;;;;;;3.42;1.10;;;22.20;99.30;;;;;;5075147;28;20029;-75
2022/07/10 11:20:45;;;;;;;4.72;1.00;;;22.50;99.40;;;;;;5074980;28;20020;-75
2022/07/10 11:23:32;;;;;;;3.20;1.38;;;23.10;99.90;;;;;;5072573;28;20158;-75
2022/07/10 11:26:08;;;;;;;3.28;1.25;;;23.30;98.70;;;;;;5075033;28;20089;-76
2022/07/10 11:28:58;;;;;;;3.40;1.40;;;23.00;97.90;;;;;;5073209;28;20020;-75
2022/07/10 11:31:26;;;;;;;3.17;1.00;;;23.30;98.60;;;;;;5074884;28;20032;-75
2022/07/10 11:33:54;;;;;;;3.70;1.27;;;23.60;97.70;;;;;;5074684;28;20480;-75
2022/07/10 11:36:25;;;;;;;4.50;1.63;;;24.00;97.50;;;;;;5074833;28;20380;-75
2022/07/10 11:39:12;;;;;;;4.28;1.00;;;23.80;97.30;;;;;;5074646;28;20124;-75
2022/07/10 11:41:48;;;;;;;6.60;1.27;;;24.00;97.10;;;;;;5074284;28;20032;-75
2022/07/10 11:44:18;;;;;;;4.82;1.23;;;23.80;97.10;;;;;;5074517;28;20373;-76
2022/07/10 11:46:48;;;;;;;6.40;1.10;;;23.90;97.80;;;;;;5074754;28;20032;-76
2022/07/10 11:49:14;;;;;;;4.15;0.90;;;24.60;97.40;;;;;;5074315;28;20021;-76
2022/07/10 11:51:41;;;;;;;5.78;1.17;;;24.50;96.20;;;;;;5074152;28;20073;-76
2022/07/10 11:54:08;;;;;;;4.68;1.10;;;23.90;96.90;;;;;;5074143;28;20033;-75
2022/07/10 11:56:41;;;;;;;4.63;1.30;;;24.10;97.90;;;;;;5058774;28;20019;-76
2022/07/10 11:59:12;;;;;;;4.68;1.40;;;24.60;97.70;;;;;;5074252;28;20040;-76
2022/07/10 12:01:49;;;;;;;4.35;1.38;;;24.80;97.40;;;;;;5074226;28;20095;-76
2022/07/10 12:04:16;;;;;;;6.97;1.48;;;24.60;97.00;;;;;;5073959;28;20051;-77
2022/07/10 12:06:44;;;;;;;4.20;1.20;;;24.20;97.20;;;;;;5056214;28;20012;-76
2022/07/10 12:09:18;;;;;;;5.75;1.10;;;24.80;97.60;;;;;;5073982;28;20469;-76
2022/07/10 12:11:58;;;;;;;5.30;1.52;;;25.00;96.30;;;;;;5055772;28;20047;-76
2022/07/10 12:14:25;;;;;;;5.13;1.38;;;24.70;96.50;;;;;;5074086;28;20021;-76
2022/07/10 12:16:52;;;;;;;9.35;1.25;;;24.80;96.30;;;;;;5073789;28;20023;-76
2022/07/10 12:19:30;;;;;;;4.35;1.10;;;24.10;96.90;;;;;;5072466;28;20480;-77
2022/07/10 12:21:58;;;;;;;5.05;1.20;;;24.40;98.20;;;;;;5073739;28;20431;-76
2022/07/10 12:24:25;;;;;;;8.77;1.75;;;24.80;97.60;;;;;;5073763;28;20468;-77
2022/07/10 12:26:52;;;;;;;5.93;1.40;;;25.20;96.90;;;;;;5073380;28;20078;-77
2022/07/10 12:29:18;;;;;;;3.22;1.27;;;25.90;96.10;;;;;;5073655;28;20537;-78
2022/07/10 12:31:49;;;;;;;3.30;1.30;;;24.40;96.80;;;;;;5073564;28;20111;-76
2022/07/10 12:34:15;;;;;;;4.93;1.70;;;24.70;97.00;;;;;;5073283;28;20366;-76
2022/07/10 12:36:47;;;;;;;6.20;1.20;;;25.20;96.80;;;;;;5073361;28;20033;-77
2022/07/10 12:39:15;;;;;;;6.13;1.80;;;24.70;96.50;;;;;;5071959;28;20093;-77
2022/07/10 12:41:59;;;;;;;5.70;1.38;;;25.00;96.90;;;;;;5073467;28;20481;-77
2022/07/10 12:44:30;;;;;;;3.20;1.30;;;25.70;95.80;;;;;;5049197;28;20028;-78
2022/07/10 12:47:08;;;;;;;3.72;0.90;;;25.90;95.30;;;;;;5073321;28;20040;-77
2022/07/10 12:50:04;;;;;;;4.65;1.08;;;25.70;95.30;;;;;;5073432;28;20381;-78
2022/07/10 12:52:33;;;;;;;3.45;1.20;;;25.70;95.30;;;;;;5068732;28;20052;-77
2022/07/10 12:55:34;;;;;;;6.55;1.52;;;24.80;96.30;;;;;;5064562;28;20027;-77
2022/07/10 12:58:05;;;;;;;2.20;1.02;;;25.50;95.30;;;;;;5069796;28;20465;-78
2022/07/10 13:00:34;;;;;;;;;;;25.10;95.50;;;;;;5073343;28;20051;-76